Tinsdal — V2AJ2 — position and weather

sailwx.info

Track history (hours):
 
Tides and Currents Weather Stations Pressure Air Temp Water Temp Dewpoint Dewpoint Depression Visibility Wind Speed Wind Dir Waves Ship Positions

Tinsdal

Last reported at 2017-Feb-22 14:34 UTC. Time now 2017-Feb-22 15:19 UTC.
Position N 35°55' W 005°19'.

Length 90 m; draft 5.6 m.

Type: Cargo ship. MMSI: 305573000.

Date/timePositionNaut miles runAvg speedWind from/ knotsBaromVisibWave heightAir tempDewpointWater temp
2017-Feb-22 14:34N 35°55' W 005°19'1 0.8
2017-Feb-22 13:34N 35°56' W 005°19'2 1.9
2017-Feb-22 12:34N 35°56' W 005°17'1 0.8
2017-Feb-22 11:33N 35°55' W 005°16'8 7.2
2017-Feb-22 10:24N 35°52' W 005°07'2 1.7
2017-Feb-22 09:19N 35°53' W 005°09'1 0.5
2017-Feb-22 06:13N 35°54' W 005°08'0 0.1
2017-Feb-22 05:33N 35°54' W 005°08'0 0.2
2017-Feb-22 04:29N 35°54' W 005°08'0 0.1
2017-Feb-22 03:33N 35°54' W 005°08'1 0.5
2017-Feb-22 02:33N 35°54' W 005°09'3 3.0
2017-Feb-22 01:31N 35°57' W 005°07'  
2017-Feb-17 09:06N 37°27' W 000°45'1012.1
2017-Feb-17 08:17N 37°33' W 000°36'811.0
2017-Feb-17 07:33N 37°39' W 000°29'113 9.2
2017-Feb-16 19:17N 39°31' W 000°09'  
Track history (hours):
 
Tides and Currents Weather Stations Pressure Air Temp Water Temp Dewpoint Dewpoint Depression Visibility Wind Speed Wind Dir Waves Ship Positions

Tinsdal

Last reported at 2017-Feb-22 14:34 UTC. Time now 2017-Feb-22 15:19 UTC.
Position N 35°55' W 005°19'.

Length 90 m; draft 5.6 m.

Type: Cargo ship. MMSI: 305573000.

Date/timePositionNaut miles runAvg speedWind from/ knotsBaromVisibWave heightAir tempDewpointWater temp
2017-Feb-22 14:34N 35°55' W 005°19'1 0.8
2017-Feb-22 13:34N 35°56' W 005°19'2 1.9
2017-Feb-22 12:34N 35°56' W 005°17'1 0.8
2017-Feb-22 11:33N 35°55' W 005°16'8 7.2
2017-Feb-22 10:24N 35°52' W 005°07'2 1.7
2017-Feb-22 09:19N 35°53' W 005°09'1 0.5
2017-Feb-22 06:13N 35°54' W 005°08'0 0.1
2017-Feb-22 05:33N 35°54' W 005°08'0 0.2
2017-Feb-22 04:29N 35°54' W 005°08'0 0.1
2017-Feb-22 03:33N 35°54' W 005°08'1 0.5
2017-Feb-22 02:33N 35°54' W 005°09'3 3.0
2017-Feb-22 01:31N 35°57' W 005°07'  
2017-Feb-17 09:06N 37°27' W 000°45'1012.1
2017-Feb-17 08:17N 37°33' W 000°36'811.0
2017-Feb-17 07:33N 37°39' W 000°29'113 9.2
2017-Feb-16 19:17N 39°31' W 000°09'  

Dump ship's entire track history